sensor_id;sensor_type;location;lat;lon;timestamp;P1;durP1;ratioP1;P2;durP2;ratioP2
44204;SDS011;30163;42.698;23.344;2023-02-27T00:01:31;44.72;;;13.25;;
44204;SDS011;30163;42.698;23.344;2023-02-27T00:03:58;51.25;;;14.32;;
44204;SDS011;30163;42.698;23.344;2023-02-27T00:06:24;53.75;;;13.98;;
44204;SDS011;30163;42.698;23.344;2023-02-27T00:08:49;52.05;;;13.15;;
44204;SDS011;30163;42.698;23.344;2023-02-27T00:11:15;60.28;;;13.82;;
44204;SDS011;30163;42.698;23.344;2023-02-27T00:13:40;54.35;;;13.38;;
44204;SDS011;30163;42.698;23.344;2023-02-27T00:16:06;59.63;;;13.35;;
44204;SDS011;30163;42.698;23.344;2023-02-27T00:18:31;40.80;;;14.02;;
44204;SDS011;30163;42.698;23.344;2023-02-27T00:20:57;66.18;;;13.40;;
44204;SDS011;30163;42.698;23.344;2023-02-27T00:23:22;62.72;;;14.77;;
44204;SDS011;30163;42.698;23.344;2023-02-27T00:25:47;45.42;;;14.18;;
44204;SDS011;30163;42.698;23.344;2023-02-27T00:28:14;63.58;;;14.38;;
44204;SDS011;30163;42.698;23.344;2023-02-27T00:30:39;49.45;;;15.65;;
44204;SDS011;30163;42.698;23.344;2023-02-27T00:33:05;59.30;;;14.40;;
44204;SDS011;30163;42.698;23.344;2023-02-27T00:35:30;56.45;;;13.55;;
44204;SDS011;30163;42.698;23.344;2023-02-27T00:37:55;58.58;;;13.65;;
44204;SDS011;30163;42.698;23.344;2023-02-27T00:40:21;58.85;;;15.50;;
44204;SDS011;30163;42.698;23.344;2023-02-27T00:42:49;47.08;;;13.35;;
44204;SDS011;30163;42.698;23.344;2023-02-27T00:45:15;49.28;;;13.70;;
44204;SDS011;30163;42.698;23.344;2023-02-27T00:47:40;57.25;;;13.63;;
44204;SDS011;30163;42.698;23.344;2023-02-27T00:50:06;46.80;;;14.15;;
44204;SDS011;30163;42.698;23.344;2023-02-27T00:52:31;49.28;;;14.85;;
44204;SDS011;30163;42.698;23.344;2023-02-27T00:54:58;61.70;;;16.83;;
44204;SDS011;30163;42.698;23.344;2023-02-27T00:57:24;55.95;;;16.50;;
44204;SDS011;30163;42.698;23.344;2023-02-27T00:59:50;64.07;;;16.45;;
44204;SDS011;30163;42.698;23.344;2023-02-27T01:02:15;51.83;;;16.25;;
44204;SDS011;30163;42.698;23.344;2023-02-27T01:04:41;55.63;;;15.45;;
44204;SDS011;30163;42.698;23.344;2023-02-27T01:07:07;52.00;;;14.43;;
44204;SDS011;30163;42.698;23.344;2023-02-27T01:09:32;60.22;;;16.35;;
44204;SDS011;30163;42.698;23.344;2023-02-27T01:11:57;62.42;;;16.35;;
44204;SDS011;30163;42.698;23.344;2023-02-27T01:14:23;47.97;;;14.48;;
44204;SDS011;30163;42.698;23.344;2023-02-27T01:16:48;43.08;;;14.80;;
44204;SDS011;30163;42.698;23.344;2023-02-27T01:19:14;62.85;;;14.93;;
44204;SDS011;30163;42.698;23.344;2023-02-27T01:21:39;57.08;;;14.02;;
44204;SDS011;30163;42.698;23.344;2023-02-27T01:24:06;69.32;;;14.95;;
44204;SDS011;30163;42.698;23.344;2023-02-27T01:26:32;56.55;;;15.05;;
44204;SDS011;30163;42.698;23.344;2023-02-27T01:28:58;50.58;;;13.95;;
44204;SDS011;30163;42.698;23.344;2023-02-27T01:31:23;64.63;;;15.88;;
44204;SDS011;30163;42.698;23.344;2023-02-27T01:33:48;48.45;;;14.45;;
44204;SDS011;30163;42.698;23.344;2023-02-27T01:36:14;45.95;;;13.75;;
44204;SDS011;30163;42.698;23.344;2023-02-27T01:38:39;58.22;;;14.10;;
44204;SDS011;30163;42.698;23.344;2023-02-27T01:41:05;67.05;;;15.10;;
44204;SDS011;30163;42.698;23.344;2023-02-27T01:43:31;53.75;;;13.32;;
44204;SDS011;30163;42.698;23.344;2023-02-27T01:45:57;53.90;;;13.65;;
44204;SDS011;30163;42.698;23.344;2023-02-27T01:48:26;67.35;;;14.45;;
44204;SDS011;30163;42.698;23.344;2023-02-27T01:51:12;69.20;;;13.38;;
44204;SDS011;30163;42.698;23.344;2023-02-27T01:53:43;51.78;;;14.25;;
44204;SDS011;30163;42.698;23.344;2023-02-27T01:56:18;49.72;;;13.23;;
44204;SDS011;30163;42.698;23.344;2023-02-27T01:58:45;53.58;;;14.30;;
44204;SDS011;30163;42.698;23.344;2023-02-27T02:01:15;46.05;;;13.05;;
44204;SDS011;30163;42.698;23.344;2023-02-27T02:03:46;58.33;;;13.93;;
44204;SDS011;30163;42.698;23.344;2023-02-27T02:06:12;54.00;;;14.18;;
44204;SDS011;30163;42.698;23.344;2023-02-27T02:08:41;46.42;;;13.32;;
44204;SDS011;30163;42.698;23.344;2023-02-27T02:11:09;47.47;;;12.90;;
44204;SDS011;30163;42.698;23.344;2023-02-27T02:13:36;40.13;;;12.25;;
44204;SDS011;30163;42.698;23.344;2023-02-27T02:21:36;61.90;;;14.63;;
44204;SDS011;30163;42.698;23.344;2023-02-27T02:38:02;10.80;;;2.80;;
44204;SDS011;30163;42.698;23.344;2023-02-27T02:46:00;8.32;;;2.65;;
44204;SDS011;30163;42.698;23.344;2023-02-27T02:48:38;13.55;;;2.97;;
44204;SDS011;30163;42.698;23.344;2023-02-27T02:53:47;10.50;;;2.67;;
44204;SDS011;30163;42.698;23.344;2023-02-27T02:56:21;10.15;;;2.58;;
44204;SDS011;30163;42.698;23.344;2023-02-27T03:02:07;16.92;;;4.43;;
44204;SDS011;30163;42.698;23.344;2023-02-27T03:07:32;17.65;;;7.70;;
44204;SDS011;30163;42.698;23.344;2023-02-27T03:10:03;16.05;;;8.90;;
44204;SDS011;30163;42.698;23.344;2023-02-27T03:12:32;24.33;;;9.50;;
44204;SDS011;30163;42.698;23.344;2023-02-27T03:15:02;19.75;;;8.77;;
44204;SDS011;30163;42.698;23.344;2023-02-27T03:20:55;21.98;;;10.07;;
44204;SDS011;30163;42.698;23.344;2023-02-27T03:23:25;23.35;;;9.70;;
44204;SDS011;30163;42.698;23.344;2023-02-27T03:25:53;19.80;;;10.18;;
44204;SDS011;30163;42.698;23.344;2023-02-27T03:28:20;22.60;;;11.38;;
44204;SDS011;30163;42.698;23.344;2023-02-27T03:30:53;25.20;;;10.73;;
44204;SDS011;30163;42.698;23.344;2023-02-27T03:33:36;22.95;;;11.05;;
44204;SDS011;30163;42.698;23.344;2023-02-27T03:36:11;28.27;;;11.25;;
44204;SDS011;30163;42.698;23.344;2023-02-27T03:38:44;26.05;;;11.13;;
44204;SDS011;30163;42.698;23.344;2023-02-27T03:41:33;26.58;;;10.20;;
44204;SDS011;30163;42.698;23.344;2023-02-27T03:47:03;27.85;;;11.10;;
44204;SDS011;30163;42.698;23.344;2023-02-27T03:49:28;26.70;;;11.02;;
44204;SDS011;30163;42.698;23.344;2023-02-27T03:51:53;24.45;;;9.95;;
44204;SDS011;30163;42.698;23.344;2023-02-27T03:54:20;24.52;;;10.95;;
44204;SDS011;30163;42.698;23.344;2023-02-27T03:56:55;24.63;;;11.27;;
44204;SDS011;30163;42.698;23.344;2023-02-27T03:59:24;20.60;;;9.82;;
44204;SDS011;30163;42.698;23.344;2023-02-27T04:01:50;21.92;;;10.80;;
44204;SDS011;30163;42.698;23.344;2023-02-27T04:04:16;22.13;;;10.10;;
44204;SDS011;30163;42.698;23.344;2023-02-27T04:06:43;21.83;;;8.98;;
44204;SDS011;30163;42.698;23.344;2023-02-27T04:10:18;23.83;;;9.38;;
44204;SDS011;30163;42.698;23.344;2023-02-27T04:12:51;19.92;;;9.43;;
44204;SDS011;30163;42.698;23.344;2023-02-27T04:15:26;19.73;;;8.70;;
44204;SDS011;30163;42.698;23.344;2023-02-27T04:20:56;21.52;;;9.65;;
44204;SDS011;30163;42.698;23.344;2023-02-27T04:26:20;18.95;;;8.38;;
44204;SDS011;30163;42.698;23.344;2023-02-27T04:29:03;21.40;;;9.60;;
44204;SDS011;30163;42.698;23.344;2023-02-27T04:31:40;28.10;;;9.85;;
44204;SDS011;30163;42.698;23.344;2023-02-27T04:34:13;18.20;;;8.73;;
44204;SDS011;30163;42.698;23.344;2023-02-27T04:36:54;19.67;;;9.13;;
44204;SDS011;30163;42.698;23.344;2023-02-27T04:39:26;22.42;;;8.93;;
44204;SDS011;30163;42.698;23.344;2023-02-27T04:42:04;18.77;;;8.93;;
44204;SDS011;30163;42.698;23.344;2023-02-27T04:44:33;17.63;;;8.73;;
44204;SDS011;30163;42.698;23.344;2023-02-27T04:47:00;17.40;;;8.35;;
44204;SDS011;30163;42.698;23.344;2023-02-27T04:49:28;18.40;;;7.90;;
44204;SDS011;30163;42.698;23.344;2023-02-27T04:51:57;18.88;;;8.48;;
44204;SDS011;30163;42.698;23.344;2023-02-27T04:54:49;17.83;;;8.30;;
44204;SDS011;30163;42.698;23.344;2023-02-27T04:57:22;21.20;;;10.30;;
44204;SDS011;30163;42.698;23.344;2023-02-27T04:59:53;19.08;;;8.38;;
44204;SDS011;30163;42.698;23.344;2023-02-27T05:02:24;22.73;;;8.73;;
44204;SDS011;30163;42.698;23.344;2023-02-27T05:04:53;18.25;;;8.23;;
44204;SDS011;30163;42.698;23.344;2023-02-27T05:07:23;16.13;;;7.50;;
44204;SDS011;30163;42.698;23.344;2023-02-27T05:09:52;18.55;;;7.15;;
44204;SDS011;30163;42.698;23.344;2023-02-27T05:12:43;17.50;;;6.38;;
44204;SDS011;30163;42.698;23.344;2023-02-27T05:15:12;14.35;;;5.35;;
44204;SDS011;30163;42.698;23.344;2023-02-27T05:17:49;11.85;;;5.32;;
44204;SDS011;30163;42.698;23.344;2023-02-27T05:20:18;12.25;;;5.82;;
44204;SDS011;30163;42.698;23.344;2023-02-27T05:23:28;11.45;;;6.05;;
44204;SDS011;30163;42.698;23.344;2023-02-27T05:33:58;13.70;;;7.10;;
44204;SDS011;30163;42.698;23.344;2023-02-27T05:36:48;13.23;;;5.93;;
44204;SDS011;30163;42.698;23.344;2023-02-27T05:39:18;17.05;;;7.35;;
44204;SDS011;30163;42.698;23.344;2023-02-27T05:41:52;14.45;;;6.97;;
44204;SDS011;30163;42.698;23.344;2023-02-27T05:44:22;13.48;;;6.97;;
44204;SDS011;30163;42.698;23.344;2023-02-27T05:47:09;12.15;;;7.38;;
44204;SDS011;30163;42.698;23.344;2023-02-27T05:49:40;23.08;;;7.78;;
44204;SDS011;30163;42.698;23.344;2023-02-27T05:52:10;15.30;;;7.05;;
44204;SDS011;30163;42.698;23.344;2023-02-27T05:55:10;11.95;;;6.20;;
44204;SDS011;30163;42.698;23.344;2023-02-27T05:57:32;11.77;;;6.22;;
44204;SDS011;30163;42.698;23.344;2023-02-27T06:02:38;16.17;;;6.90;;
44204;SDS011;30163;42.698;23.344;2023-02-27T06:05:05;10.93;;;6.05;;
44204;SDS011;30163;42.698;23.344;2023-02-27T06:07:31;14.68;;;7.13;;
44204;SDS011;30163;42.698;23.344;2023-02-27T06:09:57;14.75;;;6.93;;
44204;SDS011;30163;42.698;23.344;2023-02-27T06:12:22;15.40;;;7.80;;
44204;SDS011;30163;42.698;23.344;2023-02-27T06:14:48;13.98;;;7.10;;
44204;SDS011;30163;42.698;23.344;2023-02-27T06:17:13;10.82;;;6.25;;
44204;SDS011;30163;42.698;23.344;2023-02-27T06:19:39;17.38;;;8.48;;
44204;SDS011;30163;42.698;23.344;2023-02-27T06:22:04;16.08;;;7.90;;
44204;SDS011;30163;42.698;23.344;2023-02-27T06:24:30;11.23;;;7.18;;
44204;SDS011;30163;42.698;23.344;2023-02-27T06:26:55;14.57;;;7.25;;
44204;SDS011;30163;42.698;23.344;2023-02-27T06:29:20;11.57;;;7.57;;
44204;SDS011;30163;42.698;23.344;2023-02-27T06:31:46;17.10;;;7.30;;
44204;SDS011;30163;42.698;23.344;2023-02-27T06:34:11;13.25;;;7.35;;
44204;SDS011;30163;42.698;23.344;2023-02-27T06:36:37;15.70;;;8.25;;
44204;SDS011;30163;42.698;23.344;2023-02-27T06:39:02;14.88;;;7.60;;
44204;SDS011;30163;42.698;23.344;2023-02-27T06:41:28;21.95;;;9.48;;
44204;SDS011;30163;42.698;23.344;2023-02-27T06:43:54;19.40;;;9.02;;
44204;SDS011;30163;42.698;23.344;2023-02-27T06:46:20;14.95;;;7.05;;
44204;SDS011;30163;42.698;23.344;2023-02-27T06:48:45;12.27;;;7.40;;
44204;SDS011;30163;42.698;23.344;2023-02-27T06:51:11;12.95;;;7.60;;
44204;SDS011;30163;42.698;23.344;2023-02-27T06:53:36;18.73;;;8.07;;
44204;SDS011;30163;42.698;23.344;2023-02-27T06:56:02;12.68;;;7.53;;
44204;SDS011;30163;42.698;23.344;2023-02-27T06:58:27;12.40;;;7.35;;
44204;SDS011;30163;42.698;23.344;2023-02-27T07:00:52;16.63;;;8.27;;
44204;SDS011;30163;42.698;23.344;2023-02-27T07:03:18;14.32;;;7.65;;
44204;SDS011;30163;42.698;23.344;2023-02-27T07:05:43;29.67;;;9.02;;
44204;SDS011;30163;42.698;23.344;2023-02-27T07:08:09;20.20;;;9.05;;
44204;SDS011;30163;42.698;23.344;2023-02-27T07:10:35;25.88;;;7.68;;
44204;SDS011;30163;42.698;23.344;2023-02-27T07:13:00;16.58;;;7.97;;
44204;SDS011;30163;42.698;23.344;2023-02-27T07:15:27;15.85;;;7.82;;
44204;SDS011;30163;42.698;23.344;2023-02-27T07:17:52;16.08;;;7.65;;
44204;SDS011;30163;42.698;23.344;2023-02-27T07:20:18;22.05;;;8.90;;
44204;SDS011;30163;42.698;23.344;2023-02-27T07:22:43;20.17;;;8.50;;
44204;SDS011;30163;42.698;23.344;2023-02-27T07:25:09;18.50;;;8.75;;
44204;SDS011;30163;42.698;23.344;2023-02-27T07:27:34;25.27;;;9.05;;
44204;SDS011;30163;42.698;23.344;2023-02-27T07:30:00;12.90;;;7.88;;
44204;SDS011;30163;42.698;23.344;2023-02-27T07:32:25;18.50;;;8.05;;
44204;SDS011;30163;42.698;23.344;2023-02-27T07:34:51;15.40;;;7.95;;
44204;SDS011;30163;42.698;23.344;2023-02-27T07:37:17;17.70;;;8.38;;
44204;SDS011;30163;42.698;23.344;2023-02-27T07:39:42;13.55;;;7.28;;
44204;SDS011;30163;42.698;23.344;2023-02-27T07:42:09;16.02;;;6.70;;
44204;SDS011;30163;42.698;23.344;2023-02-27T07:44:34;20.38;;;7.80;;
44204;SDS011;30163;42.698;23.344;2023-02-27T07:47:00;18.05;;;8.07;;
44204;SDS011;30163;42.698;23.344;2023-02-27T07:49:25;12.25;;;6.88;;
44204;SDS011;30163;42.698;23.344;2023-02-27T07:51:51;23.45;;;7.68;;
44204;SDS011;30163;42.698;23.344;2023-02-27T07:54:16;34.83;;;7.97;;
44204;SDS011;30163;42.698;23.344;2023-02-27T07:56:42;21.27;;;7.88;;
44204;SDS011;30163;42.698;23.344;2023-02-27T07:59:07;26.10;;;7.43;;
44204;SDS011;30163;42.698;23.344;2023-02-27T08:01:32;23.17;;;9.45;;
44204;SDS011;30163;42.698;23.344;2023-02-27T08:03:58;14.65;;;7.57;;
44204;SDS011;30163;42.698;23.344;2023-02-27T08:06:23;29.20;;;7.47;;
44204;SDS011;30163;42.698;23.344;2023-02-27T08:08:49;10.32;;;5.90;;
44204;SDS011;30163;42.698;23.344;2023-02-27T08:11:15;17.60;;;5.95;;
44204;SDS011;30163;42.698;23.344;2023-02-27T08:13:42;20.55;;;6.93;;
44204;SDS011;30163;42.698;23.344;2023-02-27T08:16:09;10.88;;;5.90;;
44204;SDS011;30163;42.698;23.344;2023-02-27T08:18:35;21.83;;;6.03;;
44204;SDS011;30163;42.698;23.344;2023-02-27T08:21:00;16.13;;;6.35;;
44204;SDS011;30163;42.698;23.344;2023-02-27T08:23:28;14.93;;;6.80;;
44204;SDS011;30163;42.698;23.344;2023-02-27T08:25:54;22.10;;;6.15;;
44204;SDS011;30163;42.698;23.344;2023-02-27T08:28:19;13.07;;;5.38;;
44204;SDS011;30163;42.698;23.344;2023-02-27T08:30:45;20.80;;;6.38;;
44204;SDS011;30163;42.698;23.344;2023-02-27T08:33:10;17.33;;;5.80;;
44204;SDS011;30163;42.698;23.344;2023-02-27T08:35:36;11.43;;;5.78;;
44204;SDS011;30163;42.698;23.344;2023-02-27T08:38:01;20.38;;;7.10;;
44204;SDS011;30163;42.698;23.344;2023-02-27T08:40:26;16.23;;;6.32;;
44204;SDS011;30163;42.698;23.344;2023-02-27T08:42:52;25.42;;;5.65;;
44204;SDS011;30163;42.698;23.344;2023-02-27T08:45:17;24.55;;;6.47;;
44204;SDS011;30163;42.698;23.344;2023-02-27T08:47:43;17.83;;;5.70;;
44204;SDS011;30163;42.698;23.344;2023-02-27T08:50:09;13.07;;;5.28;;
44204;SDS011;30163;42.698;23.344;2023-02-27T08:52:36;24.58;;;6.38;;
44204;SDS011;30163;42.698;23.344;2023-02-27T08:55:01;19.70;;;6.03;;
44204;SDS011;30163;42.698;23.344;2023-02-27T08:57:27;16.50;;;5.32;;
44204;SDS011;30163;42.698;23.344;2023-02-27T08:59:52;15.98;;;8.32;;
44204;SDS011;30163;42.698;23.344;2023-02-27T09:02:18;9.80;;;5.30;;
44204;SDS011;30163;42.698;23.344;2023-02-27T09:04:43;11.82;;;5.93;;
44204;SDS011;30163;42.698;23.344;2023-02-27T09:07:08;9.82;;;4.88;;
44204;SDS011;30163;42.698;23.344;2023-02-27T09:09:34;13.05;;;5.30;;
44204;SDS011;30163;42.698;23.344;2023-02-27T09:11:59;23.63;;;6.20;;
44204;SDS011;30163;42.698;23.344;2023-02-27T09:14:25;21.83;;;6.40;;
44204;SDS011;30163;42.698;23.344;2023-02-27T09:16:50;12.85;;;5.82;;
44204;SDS011;30163;42.698;23.344;2023-02-27T09:19:15;41.63;;;6.90;;
44204;SDS011;30163;42.698;23.344;2023-02-27T09:21:41;17.08;;;6.20;;
44204;SDS011;30163;42.698;23.344;2023-02-27T09:24:06;17.23;;;6.68;;
44204;SDS011;30163;42.698;23.344;2023-02-27T09:26:34;14.82;;;7.55;;
44204;SDS011;30163;42.698;23.344;2023-02-27T09:28:59;17.65;;;6.25;;
44204;SDS011;30163;42.698;23.344;2023-02-27T09:31:25;25.85;;;7.80;;
44204;SDS011;30163;42.698;23.344;2023-02-27T09:33:50;20.67;;;6.47;;
44204;SDS011;30163;42.698;23.344;2023-02-27T09:36:16;20.85;;;7.00;;
44204;SDS011;30163;42.698;23.344;2023-02-27T09:38:41;15.25;;;6.07;;
44204;SDS011;30163;42.698;23.344;2023-02-27T09:41:16;8.70;;;5.85;;
44204;SDS011;30163;42.698;23.344;2023-02-27T09:43:48;22.25;;;7.35;;
44204;SDS011;30163;42.698;23.344;2023-02-27T09:46:16;12.55;;;6.43;;
44204;SDS011;30163;42.698;23.344;2023-02-27T09:48:47;12.20;;;6.50;;
44204;SDS011;30163;42.698;23.344;2023-02-27T09:51:17;14.13;;;6.78;;
44204;SDS011;30163;42.698;23.344;2023-02-27T09:53:45;21.02;;;7.72;;
44204;SDS011;30163;42.698;23.344;2023-02-27T09:56:14;23.90;;;6.97;;
44204;SDS011;30163;42.698;23.344;2023-02-27T10:01:27;22.52;;;7.40;;
44204;SDS011;30163;42.698;23.344;2023-02-27T10:06:50;15.52;;;7.75;;
44204;SDS011;30163;42.698;23.344;2023-02-27T10:09:29;18.10;;;7.95;;
44204;SDS011;30163;42.698;23.344;2023-02-27T10:12:09;18.80;;;7.55;;
44204;SDS011;30163;42.698;23.344;2023-02-27T10:14:50;17.05;;;7.78;;
44204;SDS011;30163;42.698;23.344;2023-02-27T10:17:35;14.02;;;7.93;;
44204;SDS011;30163;42.698;23.344;2023-02-27T10:20:06;17.42;;;7.72;;
44204;SDS011;30163;42.698;23.344;2023-02-27T10:22:39;20.83;;;7.75;;
44204;SDS011;30163;42.698;23.344;2023-02-27T10:25:14;19.83;;;7.93;;
44204;SDS011;30163;42.698;23.344;2023-02-27T10:27:42;22.90;;;8.00;;
44204;SDS011;30163;42.698;23.344;2023-02-27T10:32:45;17.45;;;7.85;;
44204;SDS011;30163;42.698;23.344;2023-02-27T10:41:01;24.35;;;8.57;;
44204;SDS011;30163;42.698;23.344;2023-02-27T10:43:27;21.20;;;8.90;;
44204;SDS011;30163;42.698;23.344;2023-02-27T10:45:53;33.60;;;10.13;;
44204;SDS011;30163;42.698;23.344;2023-02-27T10:48:19;19.73;;;10.05;;
44204;SDS011;30163;42.698;23.344;2023-02-27T10:50:45;22.20;;;8.57;;
44204;SDS011;30163;42.698;23.344;2023-02-27T10:53:18;18.67;;;9.45;;
44204;SDS011;30163;42.698;23.344;2023-02-27T10:56:07;21.15;;;9.88;;
44204;SDS011;30163;42.698;23.344;2023-02-27T10:58:33;19.95;;;8.95;;
44204;SDS011;30163;42.698;23.344;2023-02-27T11:01:01;25.10;;;8.45;;
44204;SDS011;30163;42.698;23.344;2023-02-27T11:03:31;23.65;;;8.35;;
44204;SDS011;30163;42.698;23.344;2023-02-27T11:06:03;19.15;;;8.90;;
44204;SDS011;30163;42.698;23.344;2023-02-27T11:08:37;16.90;;;8.35;;
44204;SDS011;30163;42.698;23.344;2023-02-27T11:11:04;19.35;;;7.45;;
44204;SDS011;30163;42.698;23.344;2023-02-27T11:13:35;23.65;;;8.30;;
44204;SDS011;30163;42.698;23.344;2023-02-27T11:18:27;11.77;;;6.50;;
44204;SDS011;30163;42.698;23.344;2023-02-27T11:21:08;15.55;;;5.57;;
44204;SDS011;30163;42.698;23.344;2023-02-27T11:23:53;23.70;;;6.40;;
44204;SDS011;30163;42.698;23.344;2023-02-27T11:26:29;12.73;;;5.80;;
44204;SDS011;30163;42.698;23.344;2023-02-27T11:31:39;19.15;;;5.88;;
44204;SDS011;30163;42.698;23.344;2023-02-27T11:34:13;15.20;;;7.40;;
44204;SDS011;30163;42.698;23.344;2023-02-27T11:36:52;22.02;;;7.57;;
44204;SDS011;30163;42.698;23.344;2023-02-27T11:39:28;19.48;;;8.48;;
44204;SDS011;30163;42.698;23.344;2023-02-27T11:41:56;15.30;;;6.43;;
44204;SDS011;30163;42.698;23.344;2023-02-27T11:44:27;14.90;;;7.50;;
44204;SDS011;30163;42.698;23.344;2023-02-27T11:47:15;18.08;;;7.70;;
44204;SDS011;30163;42.698;23.344;2023-02-27T11:55:01;16.17;;;7.78;;
44204;SDS011;30163;42.698;23.344;2023-02-27T11:57:32;19.08;;;8.85;;
44204;SDS011;30163;42.698;23.344;2023-02-27T12:05:32;14.13;;;8.02;;
44204;SDS011;30163;42.698;23.344;2023-02-27T12:08:06;30.63;;;10.00;;
44204;SDS011;30163;42.698;23.344;2023-02-27T12:10:49;20.65;;;9.88;;
44204;SDS011;30163;42.698;23.344;2023-02-27T12:13:22;15.65;;;7.97;;
44204;SDS011;30163;42.698;23.344;2023-02-27T12:21:27;19.55;;;9.38;;
44204;SDS011;30163;42.698;23.344;2023-02-27T12:26:31;21.02;;;9.15;;
44204;SDS011;30163;42.698;23.344;2023-02-27T12:29:04;26.48;;;10.00;;
44204;SDS011;30163;42.698;23.344;2023-02-27T12:34:26;16.42;;;8.02;;
44204;SDS011;30163;42.698;23.344;2023-02-27T12:37:02;18.58;;;7.63;;
44204;SDS011;30163;42.698;23.344;2023-02-27T12:39:29;29.33;;;8.25;;
44204;SDS011;30163;42.698;23.344;2023-02-27T12:47:38;33.15;;;10.90;;
44204;SDS011;30163;42.698;23.344;2023-02-27T12:50:23;17.70;;;9.02;;
44204;SDS011;30163;42.698;23.344;2023-02-27T12:55:27;21.63;;;9.15;;
44204;SDS011;30163;42.698;23.344;2023-02-27T13:06:19;20.92;;;8.23;;
44204;SDS011;30163;42.698;23.344;2023-02-27T13:16:42;16.25;;;7.05;;
44204;SDS011;30163;42.698;23.344;2023-02-27T13:19:11;39.67;;;9.18;;
44204;SDS011;30163;42.698;23.344;2023-02-27T13:26:48;23.02;;;9.30;;
44204;SDS011;30163;42.698;23.344;2023-02-27T13:29:17;27.05;;;9.57;;
44204;SDS011;30163;42.698;23.344;2023-02-27T13:34:48;17.08;;;9.15;;
44204;SDS011;30163;42.698;23.344;2023-02-27T13:37:17;14.60;;;8.52;;
44204;SDS011;30163;42.698;23.344;2023-02-27T13:45:01;17.85;;;8.75;;
44204;SDS011;30163;42.698;23.344;2023-02-27T13:49:53;27.15;;;10.55;;
44204;SDS011;30163;42.698;23.344;2023-02-27T13:52:26;36.60;;;10.93;;
44204;SDS011;30163;42.698;23.344;2023-02-27T13:55:02;25.27;;;10.48;;
44204;SDS011;30163;42.698;23.344;2023-02-27T13:57:32;35.80;;;12.68;;
44204;SDS011;30163;42.698;23.344;2023-02-27T14:05:46;34.20;;;11.13;;
44204;SDS011;30163;42.698;23.344;2023-02-27T14:08:20;19.80;;;10.27;;
44204;SDS011;30163;42.698;23.344;2023-02-27T14:19:02;36.67;;;13.35;;
44204;SDS011;30163;42.698;23.344;2023-02-27T14:24:16;31.48;;;13.50;;
44204;SDS011;30163;42.698;23.344;2023-02-27T14:26:46;31.45;;;13.68;;
44204;SDS011;30163;42.698;23.344;2023-02-27T14:29:22;42.05;;;12.65;;
44204;SDS011;30163;42.698;23.344;2023-02-27T14:31:55;33.20;;;12.98;;
44204;SDS011;30163;42.698;23.344;2023-02-27T14:34:21;33.60;;;12.18;;
44204;SDS011;30163;42.698;23.344;2023-02-27T14:36:49;20.27;;;10.90;;
44204;SDS011;30163;42.698;23.344;2023-02-27T14:39:20;34.20;;;13.52;;
44204;SDS011;30163;42.698;23.344;2023-02-27T14:42:03;24.83;;;12.38;;
44204;SDS011;30163;42.698;23.344;2023-02-27T14:44:46;33.30;;;12.43;;
44204;SDS011;30163;42.698;23.344;2023-02-27T14:47:14;23.90;;;10.80;;
44204;SDS011;30163;42.698;23.344;2023-02-27T14:49:44;27.17;;;12.57;;
44204;SDS011;30163;42.698;23.344;2023-02-27T14:52:19;20.02;;;10.88;;
44204;SDS011;30163;42.698;23.344;2023-02-27T14:54:45;27.35;;;14.27;;
44204;SDS011;30163;42.698;23.344;2023-02-27T14:57:16;29.17;;;12.88;;
44204;SDS011;30163;42.698;23.344;2023-02-27T14:59:47;27.88;;;13.27;;
44204;SDS011;30163;42.698;23.344;2023-02-27T15:02:19;34.83;;;14.82;;
44204;SDS011;30163;42.698;23.344;2023-02-27T15:05:10;29.48;;;14.15;;
44204;SDS011;30163;42.698;23.344;2023-02-27T15:07:37;34.70;;;13.88;;
44204;SDS011;30163;42.698;23.344;2023-02-27T15:10:05;26.50;;;11.82;;
44204;SDS011;30163;42.698;23.344;2023-02-27T15:12:35;49.20;;;15.25;;
44204;SDS011;30163;42.698;23.344;2023-02-27T15:15:01;42.95;;;14.65;;
44204;SDS011;30163;42.698;23.344;2023-02-27T15:17:36;37.30;;;17.23;;
44204;SDS011;30163;42.698;23.344;2023-02-27T15:20:19;29.85;;;14.93;;
44204;SDS011;30163;42.698;23.344;2023-02-27T15:22:49;30.27;;;15.68;;
44204;SDS011;30163;42.698;23.344;2023-02-27T15:28:05;35.47;;;16.63;;
44204;SDS011;30163;42.698;23.344;2023-02-27T15:30:32;36.55;;;15.70;;
44204;SDS011;30163;42.698;23.344;2023-02-27T15:32:58;41.03;;;19.48;;
44204;SDS011;30163;42.698;23.344;2023-02-27T15:35:29;43.65;;;18.85;;
44204;SDS011;30163;42.698;23.344;2023-02-27T15:37:59;34.60;;;17.85;;
44204;SDS011;30163;42.698;23.344;2023-02-27T15:40:27;47.28;;;19.25;;
44204;SDS011;30163;42.698;23.344;2023-02-27T15:42:54;52.83;;;18.15;;
44204;SDS011;30163;42.698;23.344;2023-02-27T15:45:21;40.63;;;18.80;;
44204;SDS011;30163;42.698;23.344;2023-02-27T15:47:49;55.60;;;25.25;;
44204;SDS011;30163;42.698;23.344;2023-02-27T15:52:53;61.50;;;26.15;;
44204;SDS011;30163;42.698;23.344;2023-02-27T15:55:28;60.40;;;27.33;;
44204;SDS011;30163;42.698;23.344;2023-02-27T15:57:57;56.70;;;27.88;;
44204;SDS011;30163;42.698;23.344;2023-02-27T16:00:22;58.42;;;27.38;;
44204;SDS011;30163;42.698;23.344;2023-02-27T16:02:49;65.55;;;28.02;;
44204;SDS011;30163;42.698;23.344;2023-02-27T16:05:17;47.88;;;24.55;;
44204;SDS011;30163;42.698;23.344;2023-02-27T16:07:47;58.00;;;27.60;;
44204;SDS011;30163;42.698;23.344;2023-02-27T16:10:18;47.30;;;24.20;;
44204;SDS011;30163;42.698;23.344;2023-02-27T16:12:45;62.17;;;27.53;;
44204;SDS011;30163;42.698;23.344;2023-02-27T16:15:30;57.53;;;24.88;;
44204;SDS011;30163;42.698;23.344;2023-02-27T16:26:34;64.68;;;25.98;;
44204;SDS011;30163;42.698;23.344;2023-02-27T16:28:57;48.30;;;23.15;;
44204;SDS011;30163;42.698;23.344;2023-02-27T16:31:29;57.60;;;24.00;;
44204;SDS011;30163;42.698;23.344;2023-02-27T16:36:59;58.47;;;24.42;;
44204;SDS011;30163;42.698;23.344;2023-02-27T16:39:27;51.47;;;22.35;;
44204;SDS011;30163;42.698;23.344;2023-02-27T16:41:53;49.78;;;22.20;;
44204;SDS011;30163;42.698;23.344;2023-02-27T16:44:19;49.42;;;21.75;;
44204;SDS011;30163;42.698;23.344;2023-02-27T16:46:46;50.25;;;22.77;;
44204;SDS011;30163;42.698;23.344;2023-02-27T16:49:19;48.25;;;23.65;;
44204;SDS011;30163;42.698;23.344;2023-02-27T16:51:49;60.53;;;24.02;;
44204;SDS011;30163;42.698;23.344;2023-02-27T16:54:15;62.72;;;25.60;;
44204;SDS011;30163;42.698;23.344;2023-02-27T16:56:42;80.65;;;33.25;;
44204;SDS011;30163;42.698;23.344;2023-02-27T16:59:14;90.47;;;32.90;;
44204;SDS011;30163;42.698;23.344;2023-02-27T17:01:46;47.53;;;22.50;;
44204;SDS011;30163;42.698;23.344;2023-02-27T17:04:12;54.83;;;23.35;;
44204;SDS011;30163;42.698;23.344;2023-02-27T17:06:37;48.58;;;21.35;;
44204;SDS011;30163;42.698;23.344;2023-02-27T17:09:02;54.03;;;22.48;;
44204;SDS011;30163;42.698;23.344;2023-02-27T17:11:28;60.45;;;24.17;;
44204;SDS011;30163;42.698;23.344;2023-02-27T17:13:54;40.45;;;19.27;;
44204;SDS011;30163;42.698;23.344;2023-02-27T17:16:19;41.63;;;20.58;;
44204;SDS011;30163;42.698;23.344;2023-02-27T17:18:44;54.20;;;24.67;;
44204;SDS011;30163;42.698;23.344;2023-02-27T17:21:10;49.78;;;23.90;;